Florian Jäger

Recruteur - VfL Wolfsburg
4 Avr 2027
Dimanche
Processus

Personnalité

Adaptabilité (11) Ambition (5) Controverse (3) Loyauté (11) Pression (10) Professionnalisme (12) Sportivité (2) Tempérament (4)

Profil

Style d'entraînement Démocratique
Diplôme National B
Détermination 10
Gestion des joueurs 11
Motivation 8
Discipline 7
Satisfaction professionnelle
50%
Fatigue
0%
Rôle Recruteur
Salaire 24.0K p/s
Contrat 14.03.2028

Performance

Comportement Normal
Efficacité de l'entraînement
17%
Développement des joueurs
75%
Prévention des blessures
35%
Mise en place tactique
30%

Événements récents

A participé à une réunion de recrutement maintenant
A participé à une réunion de recrutement maintenant
A évalué un joueur maintenant
A évalué un joueur maintenant
A évalué un joueur 7j
A évalué un joueur 7j
A évalué un joueur 7j
A évalué un joueur 7j

Suivi en cours

184
Joueur Club Statut Capacité Confiance Observé Dernière observation Dernier vote
Luke Baartman Chippa United Actif 101 / 95 40% 3 03.04.2027 -
Serge Daura Gazelle Garoua Actif 93 / 100 40% 2 03.04.2027 -
Ayoub Oufkir AZ Actif 135 / 137 40% 3 03.04.2027 -
Ben Ahmed Kohili Paradou Actif 112 / 100 40% 3 02.04.2027 -
Tiago Pucciarelli FK Senica Actif 99 / 113 40% 1 02.04.2027 -
Samy Merheg Alverca Actif 113 / 110 40% 1 02.04.2027 -
Efraín Álvarez Guadalajara Actif 121 / 132 40% 3 30.03.2027 -
Ognjen Bondžulić Mladost Lucani Actif 95 / 112 40% 3 30.03.2027 -
Isi Palazón Rayo Vallecano Actif 142 / 146 40% 2 30.03.2027 -
Luís Esteves Atlas Actif 133 / 131 40% 2 30.03.2027 -
Jonás Luna Osasuna Actif 109 / 116 40% 1 30.03.2027 -
Marcel Ruiz Toluca Actif 154 / 139 40% 6 27.03.2027 -
Kauã Elias Shakhtar Actif 130 / 131 40% 2 27.03.2027 -
Roger Brugué Levante Actif 125 / 130 40% 2 27.03.2027 -
Adnan Courtois KV Oostende Actif 117 / 132 40% 2 27.03.2027 -
Chiquinho Alverca Actif 136 / 128 40% 1 27.03.2027 -
Markus Jensen Nacional Actif 109 / 123 40% 1 27.03.2027 -
Orbelín Pineda Monterrey Actif 139 / 127 40% 3 25.03.2027 -
Christian Kofane Bayer Leverkusen Actif 138 / 148 40% 2 25.03.2027 -
Malcom Al Jazira Actif 157 / 146 40% 1 25.03.2027 -
Majid Dejagah Gostaresh Foulad Actif 126 / 146 40% 1 25.03.2027 -
Arkaitz Mariezkurrena Real Sociedad Actif 121 / 128 40% 6 23.03.2027 -
Mert Kömür FC Augsburg Actif 132 / 142 40% 1 23.03.2027 -
Sayed Abu Farchi Maccabi Tel Aviv Actif 119 / 132 40% 1 23.03.2027 -
Marcelo Allende Mamelodi Sundowns Actif 124 / 142 40% 2 22.03.2027 -
Zizo Al Ahly Actif 137 / 138 40% 1 22.03.2027 -
Carlos Rodríguez Cruz Azul Actif 130 / 132 40% 5 20.03.2027 -
Fashion Sakala Al-Fayha Actif 141 / 130 40% 1 20.03.2027 -
Agustín Palavecino Cruz Azul Actif 144 / 134 40% 3 19.03.2027 -
Maher Carrizo Ajax Actif 121 / 119 40% 2 19.03.2027 -
Óliver Monterrey Actif 136 / 131 40% 2 19.03.2027 -
Yannik Wagner Heidenheim Actif 105 / 100 40% 1 19.03.2027 -
Matvii Ponomarenko Dynamo Kyiv Actif 116 / 115 40% 4 16.03.2027 -
Leo Castledine Middlesbrough Actif 125 / 135 40% 2 16.03.2027 -
Dominik Baumgartner Mattersburg Actif 95 / 107 40% 2 15.03.2027 -
David Kalokoh Ajax Actif 109 / 128 40% 1 15.03.2027 -
José Arnáiz Granada Actif 132 / 117 40% 1 15.03.2027 -
Nemanja Radonjić Crvena Zvezda Actif 139 / 120 40% 1 15.03.2027 -
Axel Openda KV Oostende Actif 141 / 142 40% 2 13.03.2027 -
Oumar Camara Vitoria Guimaraes Actif 120 / 121 40% 2 13.03.2027 -
Dom Ballard Leyton Orient Actif 120 / 133 40% 1 13.03.2027 -
Iwan Morgan Grimsby Town Actif 114 / 122 40% 1 09.03.2027 -
Fernando Valenzuela Queretaro Actif 124 / 143 40% 1 08.03.2027 -
Percy Erasmus SuperSport United Actif 138 / 134 40% 1 06.03.2027 -
Achraf Bencharki Al Ahly Actif 132 / 123 40% 1 06.03.2027 -
Jesús Ricardo Angulo Toluca Actif 143 / 148 40% 1 06.03.2027 -
Uchenna Ogundu FC Augsburg Actif 124 / 134 40% 1 06.03.2027 -
Roberto Iliev Slavia Sofia Actif 100 / 103 40% 1 06.03.2027 -
Jones El-Abdellaoui Celta Actif 132 / 136 40% 4 03.03.2027 -
José Paradela Cruz Azul Actif 134 / 144 40% 6 02.03.2027 -
Sebastián Córdova Pumas UNAM Actif 147 / 140 40% 1 02.03.2027 -
Livan Burcu Union Berlin Perdu 129 / 115 65% 1 25.01.2027 Approuver
Matteo di Giusto Luzern Actif 122 / 113 40% 2 05.01.2027 -
Milson Al Jazira Actif 118 / 108 40% 2 05.01.2027 -
Felipe Augusto Zenit Actif 136 / 129 40% 1 05.01.2027 -
Luciano Gondou CSKA Moscow Actif 122 / 123 40% 2 03.01.2027 -
Michy Fellaini KV Oostende Actif 133 / 138 40% 3 03.01.2027 -
Vinicinho Bragantino Actif 132 / 138 40% 1 03.01.2027 -
Esequiel Barco Spartak Moscow Actif 139 / 132 40% 4 31.12.2026 -
Kingsley Coman Al-Nassr Actif 156 / 171 40% 1 31.12.2026 -
Alexis Vega Toluca Actif 135 / 162 40% 4 30.12.2026 -
Grischa Prömel Heidenheim Actif 143 / 145 40% 1 30.12.2026 -
Lukáš Provod Slavia Prague Actif 139 / 131 40% 2 29.12.2026 -
Pedrinho Shakhtar Actif 131 / 145 40% 1 29.12.2026 -
Nahuel Tenaglia Alavés Actif 130 / 135 40% 1 29.12.2026 -
Bernardo Fontes Braga Actif 128 / 136 40% 1 27.12.2026 -
Oleksandr Saputin Zorya Actif 113 / 127 40% 1 27.12.2026 -
Josip Juranović Union Berlin Actif 141 / 130 40% 2 26.12.2026 -
Jesus Sinisterra Sevilla Actif 151 / 154 40% 4 25.12.2026 -
Matheus Pereira Cruzeiro Actif 156 / 150 40% 3 25.12.2026 -
Theo Bongonda Al-Faisaly Actif 123 / 142 40% 1 24.12.2026 -
Rocco Vata Watford Actif 117 / 135 40% 4 22.12.2026 -
Furkan Dursun Thun Actif 102 / 97 40% 8 22.12.2026 -
Ajay Matthews Millwall Actif 95 / 115 40% 2 22.12.2026 -
Borna Knezović Casarano Actif 101 / 113 40% 4 21.12.2026 -
Benjamin Henrichs RB Leipzig Actif 144 / 136 40% 2 20.12.2026 -
Max Moerstedt TSG Hoffenheim Actif 109 / 143 40% 2 19.12.2026 -
Eliezer Mayenda Stade Rennais Actif 123 / 127 40% 2 16.12.2026 -
Luiz Júnior Villarreal Actif 140 / 146 40% 3 15.12.2026 -
Yorbe Vertessen Red Bull Salzburg Actif 124 / 137 40% 1 15.12.2026 -
Gonzalo Plata Dinamo Moscow Actif 139 / 143 40% 1 15.12.2026 -
Alvyn Sanches Young Boys Actif 127 / 134 40% 3 13.12.2026 -
Ilyes Housni AS Nancy Actif 106 / 122 40% 2 13.12.2026 -
Ezequiel Bullaude Santos Laguna Actif 124 / 110 40% 1 13.12.2026 -
Julian Weigl Al-Qadisiyah Actif 144 / 160 40% 1 09.12.2026 -
André-Franck Zambo Anguissa Napoli Actif 167 / 154 40% 1 09.12.2026 -
Bernardo TSG Hoffenheim Actif 142 / 146 40% 1 07.12.2026 -
Héctor Bellerín Betis Actif 141 / 148 40% 2 06.12.2026 -
Marvin Keller Young Boys Actif 136 / 149 40% 6 04.12.2026 -
Guilherme Fernandes Córdoba Actif 136 / 130 40% 3 04.12.2026 -
Félix Lemaréchal Club Brugge Actif 137 / 142 40% 2 04.12.2026 -
Mattia Zanotti Lugano Actif 134 / 124 40% 1 04.12.2026 -
Bilal Bayazıt Kayserispor Actif 137 / 125 40% 1 04.12.2026 -
Justin Hammel Grasshopper Actif 118 / 127 40% 3 03.12.2026 -
Robin Risser RC Lens Actif 142 / 147 40% 1 03.12.2026 -
Lucas Lund Viborg Actif 109 / 100 40% 1 03.12.2026 -
Adriano Bertaccini Anderlecht Actif 129 / 132 40% 1 02.12.2026 -
Pablo Solari Spartak Moscow Actif 138 / 127 40% 1 02.12.2026 -
Haissem Hassan Bloemfontein Celtic Actif 125 / 129 40% 3 01.12.2026 -
Gorka Guruzeta Athletic Bilbao Actif 148 / 148 40% 1 01.12.2026 -
Metinho Basel Actif 138 / 120 40% 1 01.12.2026 -
Adrià Altimira Deportivo La Coruña Actif 132 / 120 40% 1 01.12.2026 -
David Fernández O'Higgins Actif 103 / 106 40% 3 26.11.2026 -
Dženan Pejčinović VfB Stuttgart Actif 115 / 141 40% 1 26.11.2026 -
Tristan Degreef Anderlecht Actif 126 / 135 40% 2 24.11.2026 -
Urko Izeta Cádiz Actif 130 / 139 40% 1 24.11.2026 -
Isaac Schmidt Young Boys Actif 127 / 117 40% 1 24.11.2026 -
Donnell McNeilly Nottingham Forest Actif 115 / 114 40% 2 21.11.2026 -
Conrad Harder RB Leipzig Actif 134 / 152 40% 2 20.11.2026 -
Matthieu Epolo Standard Liege Actif 122 / 132 40% 2 19.11.2026 -
Lazar Carević Famalicao Actif 125 / 134 40% 1 19.11.2026 -
Anton Kade FC Augsburg Actif 122 / 124 40% 1 17.11.2026 -
Robert Skov Union Berlin Actif 130 / 146 40% 1 15.11.2026 -
Gorka Carrera Real Sociedad Actif 119 / 110 40% 3 14.11.2026 -
Sandro Las Palmas Actif 133 / 146 40% 2 12.11.2026 -
Kenny Tete Fulham Actif 144 / 155 40% 1 11.11.2026 -
Alexander Lyng SonderjyskE Actif 112 / 127 40% 5 08.11.2026 -
Iván Martín Racing Club Actif 153 / 139 40% 1 07.11.2026 -
Luciano Jachfe Nueva Chicago Actif 111 / 130 40% 3 06.11.2026 -
Ryan Gauld Vancouver Whitecaps Actif 137 / 137 40% 1 06.11.2026 -
Niklas Steffen Thun Actif 116 / 119 40% 1 06.11.2026 -
Mio Backhaus SC Freiburg Actif 127 / 142 40% 4 05.11.2026 -
Carl Rushworth Coventry City Actif 141 / 137 40% 2 05.11.2026 -
Elia Caprile Cagliari Actif 142 / 143 40% 1 05.11.2026 -
Brais Méndez Columbus Crew Actif 160 / 139 40% 1 03.11.2026 -
Jaminton Campaz Rosario Central Actif 140 / 127 40% 1 02.11.2026 -
Sorriso Famalicao Actif 132 / 119 40% 1 02.11.2026 -
Ritsu Doan Gamba Osaka Actif 141 / 140 40% 1 02.11.2026 -
Michael Cooper Sheffield United Actif 120 / 121 40% 2 29.10.2026 -
Gonzalo Crettaz NEC Actif 134 / 140 40% 1 29.10.2026 -
Karl Hein Werder Bremen Actif 139 / 149 40% 3 27.10.2026 Observer
Fabiano Rust Feyenoord Actif 102 / 123 40% 1 27.10.2026 -
Christian Früchtl Red Bull Salzburg Actif 113 / 126 40% 4 24.10.2026 -
Archie Goodwin Charlotte Football Club Actif 94 / 116 40% 1 24.10.2026 -
Kostantis Tzolakis Hull City Actif 139 / 144 40% 1 22.10.2026 -
César Ibáñez Huracán Actif 133 / 138 40% 1 22.10.2026 -
Alan Lescano Argentinos Juniors Actif 116 / 139 40% 1 22.10.2026 -
Matko Miljevic Racing Club Actif 125 / 121 40% 1 22.10.2026 -
Iñaki Peña Panathinaikos Actif 137 / 143 40% 1 19.10.2026 -
Jamie Cumming Oxford United Actif 118 / 110 40% 1 19.10.2026 -
Nicolás Fernández Mercau New York City Actif 137 / 128 40% 1 17.10.2026 -
Exequiel Zeballos Boca Juniors Actif 140 / 132 40% 1 16.10.2026 -
Fidel Ambríz Monterrey Actif 128 / 122 40% 1 16.10.2026 -
Abubakr Barry Red Bull Salzburg Actif 127 / 126 40% 1 14.10.2026 -
Facundo Mura Inter Miami CF Actif 119 / 109 40% 1 14.10.2026 -
Nikolay Zlatev Cherno More Actif 105 / 99 40% 1 13.10.2026 -
Diego Conde Villarreal Actif 138 / 149 40% 2 11.10.2026 -
Anthony Racioppi Sion Actif 122 / 112 40% 1 09.10.2026 -
Mauro Silveira Junior Actif 105 / 118 40% 3 07.10.2026 -
Anthony Patterson Wrexham Actif 132 / 118 40% 1 07.10.2026 -
Arijanet Murić Sassuolo Actif 140 / 146 40% 1 07.10.2026 -
Pascal Loretz Luzern Actif 128 / 124 40% 2 05.10.2026 -
Grégoire Coudert Burnley Actif 119 / 126 40% 2 04.10.2026 -
Radek Vítek Middlesbrough Actif 125 / 147 40% 1 04.10.2026 -
Nicolás Sumavil Platense Actif 111 / 111 40% 1 04.10.2026 -
Axel Alderweireld KV Oostende Actif 137 / 129 40% 3 29.09.2026 -
Alex Luna Instituto Actif 119 / 116 40% 1 29.09.2026 -
James Trafford Leeds United Actif 137 / 139 40% 2 27.09.2026 -
Patrick Schulte Columbus Crew Actif 108 / 112 40% 1 27.09.2026 -
Marquinhos Spartak Moscow Actif 123 / 124 40% 1 27.09.2026 -
Alan Velasco Boca Juniors Actif 127 / 149 40% 1 27.09.2026 -
Tomás Chancalay Minnesota United FC Actif 136 / 107 40% 1 27.09.2026 -
Diego Lainez Tigres Actif 116 / 142 40% 2 26.09.2026 -
Riqui Puig LA Galaxy Actif 145 / 120 40% 1 26.09.2026 -
Brian Rodríguez Club America Actif 115 / 120 40% 1 26.09.2026 -
Ilyas Ansah Union Berlin Actif 130 / 126 40% 1 23.09.2026 -
Philip Otele Basel Actif 127 / 137 40% 1 21.09.2026 -
Maurits Kjærgaard Red Bull Salzburg Actif 125 / 128 40% 1 21.09.2026 -
Gabriel Brazão Santos Actif 145 / 121 40% 1 19.09.2026 -
Thalys Almería Actif 109 / 134 40% 2 17.09.2026 -
Vitor Roque Palmeiras Actif 128 / 133 40% 3 15.09.2026 -
Will Lankshear Middlesbrough Actif 128 / 130 40% 2 15.09.2026 -
Felipe Zenobio Tigre Actif 136 / 128 40% 2 15.09.2026 -
Hugo Souza Corinthians Actif 138 / 153 40% 1 15.09.2026 -
Enzo Vázquez Central Norte Actif 100 / 127 40% 1 15.09.2026 -
Erik Lira Cruz Azul Actif 136 / 138 40% 1 14.09.2026 -
Leandro Lozano Boca Juniors Actif 139 / 105 40% 1 14.09.2026 -
John Pulskamp Sporting Kansas City Actif 115 / 133 40% 1 08.09.2026 -
Ezekiel Kwame Alladoh Philadelphia Union Actif 115 / 139 40% 1 04.09.2026 -
Julián Vignolo Toulouse FC Actif 102 / 122 40% 1 30.08.2026 -
Rayan Fofana RC Lens Actif 124 / 131 40% 1 26.08.2026 -
Jacob Peter Hödl Austria Wien Actif 117 / 130 40% 1 17.08.2026 -
Taiwo Awoniyi Coventry City Actif 136 / 128 40% 1 01.08.2026 -
Igor Jesus Nottingham Forest Actif 140 / 126 40% 1 01.08.2026 -